Time;durP1;ratioP1;P1;durP2;ratioP2;P2;SDS_P1;SDS_P2;PMS_P1;PMS_P2;Temp;Humidity;BMP_temperature;BMP_pressure;BME280_temperature;BME280_humidity;BME280_pressure;Samples;Min_cycle;Max_cycle;Signal;HPM_P1;HPM_P2
2023/04/26 00:01:07;;;;;;;;;;;18.60;67.30;;;;;;4934915;29;1124;-72
2023/04/26 00:03:32;;;;;;;;;;;18.60;67.30;;;;;;4933409;29;853;-73
2023/04/26 00:05:58;;;;;;;;;;;18.60;67.30;;;;;;4933674;29;1960;-73
2023/04/26 00:08:24;;;;;;;;;;;18.60;67.30;;;;;;4933878;29;875;-73
2023/04/26 00:10:49;;;;;;;;;;;18.60;67.30;;;;;;4933757;29;932;-73
2023/04/26 00:13:15;;;;;;;;;;;18.60;67.30;;;;;;4948086;29;937;-72
2023/04/26 00:15:40;;;;;;;;;;;18.60;67.30;;;;;;4933660;29;1274;-72
2023/04/26 00:18:06;;;;;;;;;;;18.60;67.40;;;;;;4933666;29;1015;-72
2023/04/26 00:20:31;;;;;;;;;;;18.60;67.40;;;;;;4933599;29;865;-73
2023/04/26 00:22:57;;;;;;;;;;;18.60;67.40;;;;;;4933203;29;916;-73
2023/04/26 00:25:22;;;;;;;;;;;18.60;67.40;;;;;;4933381;29;1265;-72
2023/04/26 00:27:48;;;;;;;;;;;18.60;67.40;;;;;;4933292;29;1906;-73
2023/04/26 00:30:14;;;;;;;;;;;18.60;67.40;;;;;;4933216;29;1083;-73
2023/04/26 00:32:39;;;;;;;;;;;18.60;67.50;;;;;;4932069;29;867;-73
2023/04/26 00:35:05;;;;;;;;;;;18.60;67.40;;;;;;4933508;29;1380;-73
2023/04/26 00:37:30;;;;;;;;;;;18.60;67.40;;;;;;4933200;29;955;-73
2023/04/26 00:39:56;;;;;;;;;;;18.60;67.40;;;;;;4933187;29;1027;-73
2023/04/26 00:42:21;;;;;;;;;;;18.60;67.40;;;;;;4933196;29;845;-73
2023/04/26 00:44:49;;;;;;;;;;;18.60;67.50;;;;;;4932749;29;1268;-72
2023/04/26 00:47:14;;;;;;;;;;;18.60;67.50;;;;;;4933085;29;1902;-73
2023/04/26 00:49:40;;;;;;;;;;;18.60;67.50;;;;;;4948015;29;1368;-73
2023/04/26 00:52:05;;;;;;;;;;;18.60;67.50;;;;;;4933243;29;815;-73
2023/04/26 00:54:31;;;;;;;;;;;18.60;67.50;;;;;;4947519;29;1363;-71
2023/04/26 00:56:56;;;;;;;;;;;18.60;67.50;;;;;;4932322;29;940;-72
2023/04/26 00:59:21;;;;;;;;;;;18.60;67.50;;;;;;4933459;29;853;-72
2023/04/26 01:01:48;;;;;;;;;;;18.60;67.50;;;;;;4948129;29;924;-71
2023/04/26 01:04:13;;;;;;;;;;;18.60;67.60;;;;;;4932630;29;1672;-71
2023/04/26 01:06:40;;;;;;;;;;;18.60;67.60;;;;;;4933092;29;1964;-71
2023/04/26 01:09:08;;;;;;;;;;;18.60;67.60;;;;;;4933023;29;1043;-71
2023/04/26 01:11:34;;;;;;;;;;;18.60;67.60;;;;;;4931335;29;878;-71
2023/04/26 01:14:00;;;;;;;;;;;18.60;67.70;;;;;;4931797;29;1281;-72
2023/04/26 01:16:27;;;;;;;;;;;18.60;67.70;;;;;;4947925;29;939;-71
2023/04/26 01:18:52;;;;;;;;;;;18.60;67.70;;;;;;4931302;29;907;-72
2023/04/26 01:21:19;;;;;;;;;;;18.60;67.70;;;;;;4932789;29;861;-72
2023/04/26 01:23:45;;;;;;;;;;;18.60;67.70;;;;;;4932095;29;1258;-71
2023/04/26 01:26:10;;;;;;;;;;;18.60;67.70;;;;;;4932530;29;1975;-73
2023/04/26 01:28:36;;;;;;;;;;;18.60;67.70;;;;;;4932386;29;817;-73
2023/04/26 01:31:01;;;;;;;;;;;18.60;67.70;;;;;;4932648;29;914;-74
2023/04/26 01:33:27;;;;;;;;;;;18.50;67.70;;;;;;4947383;29;1087;-74
2023/04/26 01:35:52;;;;;;;;;;;18.60;67.70;;;;;;4932359;29;1285;-74
2023/04/26 01:38:18;;;;;;;;;;;18.60;67.70;;;;;;4932019;29;786;-74
2023/04/26 01:40:45;;;;;;;;;;;18.60;67.80;;;;;;4931811;29;930;-74
2023/04/26 01:43:10;;;;;;;;;;;18.50;67.70;;;;;;4933612;29;1253;-72
2023/04/26 01:45:36;;;;;;;;;;;18.60;67.70;;;;;;4935954;29;1213;-72
2023/04/26 01:48:01;;;;;;;;;;;18.50;67.70;;;;;;4936833;29;1965;-73
2023/04/26 01:50:27;;;;;;;;;;;18.60;67.70;;;;;;4937045;29;873;-72
2023/04/26 01:52:52;;;;;;;;;;;18.50;67.70;;;;;;4935678;29;908;-72
2023/04/26 01:55:18;;;;;;;;;;;18.50;67.70;;;;;;4935707;29;1253;-72
2023/04/26 01:57:43;;;;;;;;;;;18.50;67.70;;;;;;4935788;29;841;-72
2023/04/26 02:00:09;;;;;;;;;;;18.50;67.70;;;;;;4936239;29;1018;-72
2023/04/26 02:02:34;;;;;;;;;;;18.50;67.70;;;;;;4936204;29;1003;-72
2023/04/26 02:05:00;;;;;;;;;;;18.50;67.70;;;;;;4935811;29;2340;-72
2023/04/26 02:07:25;;;;;;;;;;;18.50;67.80;;;;;;4935989;29;1899;-72
2023/04/26 02:09:51;;;;;;;;;;;18.50;67.80;;;;;;4936639;29;843;-71
2023/04/26 02:12:16;;;;;;;;;;;18.50;67.80;;;;;;4935656;29;825;-72
2023/04/26 02:14:42;;;;;;;;;;;18.50;67.80;;;;;;4935811;29;1351;-71
2023/04/26 02:17:07;;;;;;;;;;;18.50;67.80;;;;;;4935913;29;880;-71
2023/04/26 02:19:33;;;;;;;;;;;18.50;67.80;;;;;;4935830;29;809;-72
2023/04/26 02:21:58;;;;;;;;;;;18.50;67.80;;;;;;4935633;29;959;-72
2023/04/26 02:24:24;;;;;;;;;;;18.50;67.90;;;;;;4935309;29;1263;-72
2023/04/26 02:26:51;;;;;;;;;;;18.50;67.90;;;;;;4935407;29;1894;-72
2023/04/26 02:29:16;;;;;;;;;;;18.50;67.90;;;;;;4934558;29;825;-72
2023/04/26 02:31:42;;;;;;;;;;;18.50;67.90;;;;;;4935608;29;830;-72
2023/04/26 02:34:07;;;;;;;;;;;18.50;67.90;;;;;;4935722;29;1386;-72
2023/04/26 02:36:33;;;;;;;;;;;18.50;67.90;;;;;;4936092;29;817;-72
2023/04/26 02:38:58;;;;;;;;;;;18.50;67.90;;;;;;4935335;29;904;-72
2023/04/26 02:41:24;;;;;;;;;;;18.50;67.90;;;;;;4935528;29;982;-72
2023/04/26 02:43:50;;;;;;;;;;;18.50;68.70;;;;;;4935045;29;1272;-72
2023/04/26 02:46:16;;;;;;;;;;;18.40;67.80;;;;;;4950081;29;1899;-72
2023/04/26 02:48:41;;;;;;;;;;;18.50;67.90;;;;;;4935264;29;908;-73
2023/04/26 02:51:06;;;;;;;;;;;18.50;67.90;;;;;;4934162;29;822;-72
2023/04/26 02:53:32;;;;;;;;;;;18.40;67.90;;;;;;4949876;28;868;-72
2023/04/26 02:55:59;;;;;;;;;;;18.40;67.90;;;;;;4935100;29;1329;-72
2023/04/26 02:58:25;;;;;;;;;;;18.40;67.90;;;;;;4934283;29;848;-72
2023/04/26 03:00:50;;;;;;;;;;;18.50;68.00;;;;;;4935054;29;868;-73
2023/04/26 03:03:16;;;;;;;;;;;18.40;67.90;;;;;;4934672;29;861;-72
2023/04/26 03:05:41;;;;;;;;;;;18.40;68.00;;;;;;4933791;29;1595;-72
2023/04/26 03:08:07;;;;;;;;;;;18.40;68.00;;;;;;4934479;29;1954;-73
2023/04/26 03:10:33;;;;;;;;;;;18.40;68.00;;;;;;4934235;29;1276;-71
2023/04/26 03:12:58;;;;;;;;;;;18.50;68.00;;;;;;4950885;28;1448;-72
2023/04/26 03:15:24;;;;;;;;;;;18.50;68.10;;;;;;4935378;29;1476;-71
2023/04/26 03:17:49;;;;;;;;;;;18.50;68.10;;;;;;4935339;29;1150;-75
2023/04/26 03:20:15;;;;;;;;;;;18.40;68.00;;;;;;4934410;29;1198;-70
2023/04/26 03:22:41;;;;;;;;;;;18.40;68.00;;;;;;4932963;29;1330;-69
2023/04/26 03:25:07;;;;;;;;;;;18.50;68.10;;;;;;4934331;29;1312;-70
2023/04/26 03:27:33;;;;;;;;;;;18.40;68.00;;;;;;4934125;29;1982;-70
2023/04/26 03:29:59;;;;;;;;;;;18.40;68.00;;;;;;4954133;28;1400;-73
2023/04/26 03:32:24;;;;;;;;;;;18.40;68.00;;;;;;4934684;29;1354;-75
2023/04/26 03:34:50;;;;;;;;;;;18.40;68.80;;;;;;4933558;29;1373;-73
2023/04/26 03:37:15;;;;;;;;;;;18.40;68.10;;;;;;4935893;29;1380;-72
2023/04/26 03:39:41;;;;;;;;;;;18.40;68.10;;;;;;4935639;29;1540;-75
2023/04/26 03:42:07;;;;;;;;;;;18.40;68.10;;;;;;4935051;29;1401;-72
2023/04/26 03:44:32;;;;;;;;;;;18.40;68.10;;;;;;4948920;28;1458;-74
2023/04/26 03:46:58;;;;;;;;;;;18.40;68.10;;;;;;4934140;29;1910;-73
2023/04/26 03:49:23;;;;;;;;;;;18.40;68.20;;;;;;4933729;29;1312;-73
2023/04/26 03:51:49;;;;;;;;;;;18.40;68.10;;;;;;4934156;29;957;-72
2023/04/26 03:54:17;;;;;;;;;;;18.40;68.10;;;;;;4933490;29;1367;-72
2023/04/26 03:56:43;;;;;;;;;;;18.40;68.10;;;;;;4932213;29;1544;-72
2023/04/26 03:59:08;;;;;;;;;;;18.40;68.10;;;;;;4933214;29;1330;-72
2023/04/26 04:01:35;;;;;;;;;;;18.40;68.10;;;;;;4933494;29;1410;-74
2023/04/26 04:04:03;;;;;;;;;;;18.40;68.20;;;;;;4933677;29;1370;-73
2023/04/26 04:06:28;;;;;;;;;;;18.40;68.20;;;;;;4932244;29;1918;-73
2023/04/26 04:08:54;;;;;;;;;;;18.40;68.20;;;;;;4933021;29;1404;-73
2023/04/26 04:11:20;;;;;;;;;;;18.40;68.10;;;;;;4931976;29;1449;-73
2023/04/26 04:13:45;;;;;;;;;;;18.40;68.00;;;;;;4933720;29;1393;-73
2023/04/26 04:16:11;;;;;;;;;;;18.50;68.10;;;;;;4933876;29;1468;-74
2023/04/26 04:18:36;;;;;;;;;;;18.50;68.00;;;;;;4934714;29;1343;-73
2023/04/26 04:21:02;;;;;;;;;;;18.50;67.80;;;;;;4932996;29;1358;-73
2023/04/26 04:23:27;;;;;;;;;;;18.50;67.70;;;;;;4950055;29;974;-73
2023/04/26 04:25:53;;;;;;;;;;;18.60;67.70;;;;;;4950363;29;1398;-74
2023/04/26 04:28:18;;;;;;;;;;;18.60;67.50;;;;;;4947974;29;1950;-73
2023/04/26 04:30:45;;;;;;;;;;;18.60;67.40;;;;;;4933757;29;1007;-73
2023/04/26 04:33:11;;;;;;;;;;;18.60;67.30;;;;;;4933193;29;1359;-72
2023/04/26 04:35:36;;;;;;;;;;;18.70;67.20;;;;;;4933178;29;1375;-73
2023/04/26 04:38:02;;;;;;;;;;;18.70;67.10;;;;;;4933248;29;1083;-73
2023/04/26 04:40:27;;;;;;;;;;;18.70;67.00;;;;;;4933431;29;818;-73
2023/04/26 04:42:54;;;;;;;;;;;18.70;66.90;;;;;;4933134;29;1251;-74
2023/04/26 04:45:20;;;;;;;;;;;18.70;66.80;;;;;;4932013;29;1295;-73
2023/04/26 04:47:46;;;;;;;;;;;18.80;66.80;;;;;;4931920;29;1918;-73
2023/04/26 04:50:11;;;;;;;;;;;18.80;66.70;;;;;;4932040;29;919;-73
2023/04/26 04:52:37;;;;;;;;;;;18.90;66.60;;;;;;4947606;29;1062;-73
2023/04/26 04:55:03;;;;;;;;;;;18.90;66.40;;;;;;4933047;29;1343;-73
2023/04/26 04:57:29;;;;;;;;;;;19.00;66.30;;;;;;4932039;29;852;-73
2023/04/26 04:59:54;;;;;;;;;;;19.10;66.20;;;;;;4947526;29;826;-73
2023/04/26 05:02:20;;;;;;;;;;;19.20;66.00;;;;;;4933103;29;877;-74
2023/04/26 05:04:45;;;;;;;;;;;19.30;65.80;;;;;;4932699;29;1216;-73
2023/04/26 05:07:14;;;;;;;;;;;19.40;65.60;;;;;;4932982;29;1943;-74
2023/04/26 05:09:40;;;;;;;;;;;19.40;65.20;;;;;;4931009;29;833;-74
2023/04/26 05:12:06;;;;;;;;;;;19.50;64.90;;;;;;4933595;29;837;-72
2023/04/26 05:14:31;;;;;;;;;;;19.60;64.70;;;;;;4932489;29;1372;-73
2023/04/26 05:16:57;;;;;;;;;;;19.70;64.50;;;;;;4934111;29;920;-72
2023/04/26 05:19:22;;;;;;;;;;;19.80;64.20;;;;;;4951719;29;911;-73
2023/04/26 05:21:48;;;;;;;;;;;19.80;63.90;;;;;;4937369;29;1038;-73
2023/04/26 05:24:13;;;;;;;;;;;19.90;63.70;;;;;;4937493;29;1245;-72
2023/04/26 05:26:39;;;;;;;;;;;19.90;63.50;;;;;;4937615;29;1960;-72
2023/04/26 05:29:05;;;;;;;;;;;20.00;63.30;;;;;;4937389;29;848;-72
2023/04/26 05:31:30;;;;;;;;;;;20.00;63.20;;;;;;4936459;29;848;-72
2023/04/26 05:33:56;;;;;;;;;;;20.10;63.10;;;;;;4936335;29;1283;-72
2023/04/26 05:36:22;;;;;;;;;;;20.10;62.90;;;;;;4936617;29;893;-72
2023/04/26 05:38:50;;;;;;;;;;;20.10;62.80;;;;;;4936401;29;802;-72
2023/04/26 05:41:15;;;;;;;;;;;20.20;62.70;;;;;;4935823;29;939;-72
2023/04/26 05:43:41;;;;;;;;;;;20.20;62.60;;;;;;4935947;29;1250;-71
2023/04/26 05:46:06;;;;;;;;;;;20.20;62.60;;;;;;4936127;29;1977;-72
2023/04/26 05:48:32;;;;;;;;;;;20.30;62.50;;;;;;4936142;29;913;-72
2023/04/26 05:50:57;;;;;;;;;;;20.40;62.40;;;;;;4932804;29;1501;-69
2023/04/26 05:53:23;;;;;;;;;;;20.40;62.20;;;;;;4935410;29;1348;-69
2023/04/26 05:55:48;;;;;;;;;;;20.50;62.10;;;;;;4935874;29;1240;-69
2023/04/26 05:58:14;;;;;;;;;;;20.50;61.90;;;;;;4935926;29;879;-69
2023/04/26 06:00:40;;;;;;;;;;;20.60;61.80;;;;;;4934438;29;920;-69
2023/04/26 06:03:05;;;;;;;;;;;20.60;61.70;;;;;;4935292;29;943;-70
2023/04/26 06:05:31;;;;;;;;;;;20.60;61.70;;;;;;4934546;29;1261;-70
2023/04/26 06:07:56;;;;;;;;;;;20.60;61.60;;;;;;4935650;29;1958;-70
2023/04/26 06:10:22;;;;;;;;;;;20.60;61.50;;;;;;4950515;29;906;-69
2023/04/26 06:12:47;;;;;;;;;;;20.60;61.60;;;;;;4935564;29;983;-69
2023/04/26 06:15:13;;;;;;;;;;;20.60;61.60;;;;;;4950297;29;1280;-74
2023/04/26 06:17:41;;;;;;;;;;;20.60;61.60;;;;;;4935888;29;877;-70
2023/04/26 06:20:10;;;;;;;;;;;20.60;61.60;;;;;;4935821;29;869;-70
2023/04/26 06:22:36;;;;;;;;;;;20.60;61.70;;;;;;4935954;29;887;-69
2023/04/26 06:25:03;;;;;;;;;;;20.60;61.70;;;;;;4936983;29;1376;-71
2023/04/26 06:27:29;;;;;;;;;;;20.60;61.80;;;;;;4936454;29;1924;-71
2023/04/26 06:29:55;;;;;;;;;;;20.60;61.90;;;;;;4935782;29;915;-70
2023/04/26 06:32:20;;;;;;;;;;;20.60;62.00;;;;;;4934977;29;1080;-71
2023/04/26 06:34:46;;;;;;;;;;;20.60;62.00;;;;;;4936447;29;1264;-71
2023/04/26 06:37:11;;;;;;;;;;;20.60;62.10;;;;;;4935828;29;1106;-72
2023/04/26 06:39:39;;;;;;;;;;;20.50;62.10;;;;;;4935235;29;874;-72
2023/04/26 06:42:05;;;;;;;;;;;20.50;62.10;;;;;;4934652;29;841;-72
2023/04/26 06:44:30;;;;;;;;;;;20.50;62.10;;;;;;4934728;29;1289;-70
2023/04/26 06:46:56;;;;;;;;;;;20.50;62.10;;;;;;4936471;29;1894;-70
2023/04/26 06:49:22;;;;;;;;;;;20.50;62.20;;;;;;4937153;29;842;-71
2023/04/26 06:51:47;;;;;;;;;;;20.50;62.20;;;;;;4934460;29;841;-71
2023/04/26 06:54:13;;;;;;;;;;;20.40;62.30;;;;;;4935146;29;1351;-72
2023/04/26 06:56:38;;;;;;;;;;;20.40;62.30;;;;;;4934819;29;904;-72
2023/04/26 06:59:05;;;;;;;;;;;20.40;62.30;;;;;;4934911;29;936;-73
2023/04/26 07:01:32;;;;;;;;;;;20.40;62.40;;;;;;4949741;29;857;-73
2023/04/26 07:03:58;;;;;;;;;;;20.30;62.40;;;;;;4933336;29;1271;-71
2023/04/26 07:06:24;;;;;;;;;;;20.30;62.50;;;;;;4934643;29;1966;-71
2023/04/26 07:08:50;;;;;;;;;;;20.30;62.50;;;;;;4948608;29;907;-71
2023/04/26 07:11:15;;;;;;;;;;;20.30;62.60;;;;;;4933507;29;931;-71
2023/04/26 07:13:41;;;;;;;;;;;20.30;62.70;;;;;;4935302;29;877;-73
2023/04/26 07:16:06;;;;;;;;;;;20.20;62.70;;;;;;4937120;29;1376;-73
2023/04/26 07:18:31;;;;;;;;;;;20.20;62.70;;;;;;4935226;29;1018;-73
2023/04/26 07:20:57;;;;;;;;;;;20.20;62.80;;;;;;4934905;29;875;-73
2023/04/26 07:23:22;;;;;;;;;;;20.20;62.90;;;;;;4934422;29;951;-74
2023/04/26 07:25:48;;;;;;;;;;;20.20;63.00;;;;;;4949570;29;1571;-73
2023/04/26 07:28:13;;;;;;;;;;;20.20;63.00;;;;;;4934656;29;1903;-72
2023/04/26 07:30:40;;;;;;;;;;;20.20;63.10;;;;;;4934070;29;900;-72
2023/04/26 07:33:05;;;;;;;;;;;20.10;63.10;;;;;;4933019;29;1011;-74
2023/04/26 07:35:31;;;;;;;;;;;20.10;63.20;;;;;;4934584;29;1276;-74
2023/04/26 07:37:56;;;;;;;;;;;20.10;63.30;;;;;;4933935;29;792;-74
2023/04/26 07:40:23;;;;;;;;;;;20.00;63.30;;;;;;4933564;29;805;-74
2023/04/26 07:42:48;;;;;;;;;;;20.10;63.40;;;;;;4934041;29;1337;-74
2023/04/26 07:45:14;;;;;;;;;;;20.00;63.40;;;;;;4948565;28;1260;-71
2023/04/26 07:47:40;;;;;;;;;;;20.00;63.50;;;;;;4934114;29;1908;-74
2023/04/26 07:50:06;;;;;;;;;;;20.00;63.60;;;;;;4934354;29;1014;-73
2023/04/26 07:52:31;;;;;;;;;;;20.00;63.70;;;;;;4948432;29;894;-74
2023/04/26 07:54:56;;;;;;;;;;;20.00;63.70;;;;;;4932563;29;2284;-74
2023/04/26 07:57:23;;;;;;;;;;;19.90;63.70;;;;;;4934090;29;872;-74
2023/04/26 07:59:48;;;;;;;;;;;19.90;63.80;;;;;;4933956;29;1039;-74
2023/04/26 08:02:14;;;;;;;;;;;19.90;63.80;;;;;;4934154;29;797;-73
2023/04/26 08:04:41;;;;;;;;;;;19.90;63.90;;;;;;4933130;29;1344;-73
2023/04/26 08:07:07;;;;;;;;;;;19.90;64.00;;;;;;4947813;29;1955;-73
2023/04/26 08:09:32;;;;;;;;;;;19.90;64.00;;;;;;4933703;29;872;-73
2023/04/26 08:11:57;;;;;;;;;;;19.90;64.00;;;;;;4933830;29;923;-73
2023/04/26 08:14:23;;;;;;;;;;;19.90;64.10;;;;;;4933292;29;1214;-72
2023/04/26 08:16:49;;;;;;;;;;;19.80;64.10;;;;;;4948191;29;1017;-73
2023/04/26 08:19:14;;;;;;;;;;;19.80;64.10;;;;;;4933579;29;795;-74
2023/04/26 08:21:40;;;;;;;;;;;19.80;64.20;;;;;;4948271;29;920;-71
2023/04/26 08:24:06;;;;;;;;;;;19.80;64.20;;;;;;4933751;29;1260;-76
2023/04/26 08:26:31;;;;;;;;;;;19.80;64.30;;;;;;4947855;28;1915;-72
2023/04/26 08:28:57;;;;;;;;;;;19.80;64.30;;;;;;4931732;29;844;-72
2023/04/26 08:31:22;;;;;;;;;;;19.80;64.40;;;;;;4932935;29;841;-72
2023/04/26 08:33:48;;;;;;;;;;;19.70;64.40;;;;;;4932953;29;1707;-71
2023/04/26 08:36:14;;;;;;;;;;;19.70;64.40;;;;;;4932969;29;833;-71
2023/04/26 08:38:39;;;;;;;;;;;19.70;64.40;;;;;;4932886;29;847;-71
2023/04/26 08:41:05;;;;;;;;;;;19.70;64.40;;;;;;4932838;29;1221;-71
2023/04/26 08:43:31;;;;;;;;;;;19.70;64.50;;;;;;4947715;29;1316;-71
2023/04/26 08:45:57;;;;;;;;;;;19.70;64.50;;;;;;4931640;29;1289;-72
2023/04/26 08:48:22;;;;;;;;;;;19.70;64.60;;;;;;4947999;29;1931;-73
2023/04/26 08:50:48;;;;;;;;;;;19.70;64.70;;;;;;4933159;29;889;-74
2023/04/26 08:53:14;;;;;;;;;;;19.70;64.70;;;;;;4947933;29;971;-75
2023/04/26 08:55:40;;;;;;;;;;;19.60;65.40;;;;;;4947887;29;1633;-74
2023/04/26 08:58:06;;;;;;;;;;;19.60;64.70;;;;;;4933265;29;1327;-75
2023/04/26 09:00:32;;;;;;;;;;;19.60;64.70;;;;;;4947197;29;2158;-74
2023/04/26 09:02:57;;;;;;;;;;;19.60;64.80;;;;;;4949979;29;974;-75
2023/04/26 09:05:23;;;;;;;;;;;19.60;64.90;;;;;;4947012;29;2351;-75
2023/04/26 09:07:48;;;;;;;;;;;19.60;64.90;;;;;;4931272;29;1939;-74
2023/04/26 09:10:18;;;;;;;;;;;19.60;64.90;;;;;;4947668;29;1397;-75
2023/04/26 09:12:43;;;;;;;;;;;19.50;64.90;;;;;;4932751;29;862;-75
2023/04/26 09:15:09;;;;;;;;;;;19.50;64.90;;;;;;4933148;29;1283;-75
2023/04/26 09:17:35;;;;;;;;;;;19.50;65.00;;;;;;4935435;28;1197;-75
2023/04/26 09:20:05;;;;;;;;;;;19.50;65.00;;;;;;4933269;29;836;-75
2023/04/26 09:22:31;;;;;;;;;;;19.50;65.00;;;;;;4932886;29;876;-74
2023/04/26 09:24:56;;;;;;;;;;;19.50;65.10;;;;;;4925619;29;2795;-74
2023/04/26 09:27:30;;;;;;;;;;;19.50;65.10;;;;;;4930498;29;2154;-75
2023/04/26 09:29:56;;;;;;;;;;;19.40;65.10;;;;;;4930441;29;2918;-74
2023/04/26 09:32:21;;;;;;;;;;;19.40;65.10;;;;;;4931599;29;889;-74
2023/04/26 09:34:47;;;;;;;;;;;19.40;65.20;;;;;;4932734;29;1407;-74
2023/04/26 09:37:13;;;;;;;;;;;19.40;65.20;;;;;;4932788;29;845;-74
2023/04/26 09:39:39;;;;;;;;;;;19.40;65.30;;;;;;4932167;29;1015;-74
2023/04/26 09:42:08;;;;;;;;;;;19.40;65.30;;;;;;4947937;29;805;-74
2023/04/26 09:44:33;;;;;;;;;;;19.40;65.40;;;;;;4932383;29;1301;-73
2023/04/26 09:47:07;;;;;;;;;;;19.40;65.50;;;;;;4932495;29;1902;-73
2023/04/26 09:49:53;;;;;;;;;;;19.40;65.50;;;;;;4947064;29;884;-73
2023/04/26 09:52:19;;;;;;;;;;;19.40;65.60;;;;;;4932418;29;1003;-73
2023/04/26 09:54:44;;;;;;;;;;;19.30;65.50;;;;;;4931972;29;1345;-74
2023/04/26 09:57:10;;;;;;;;;;;19.30;65.50;;;;;;4932588;29;869;-75
2023/04/26 09:59:46;;;;;;;;;;;19.30;65.60;;;;;;4947774;29;1445;-74
2023/04/26 10:02:15;;;;;;;;;;;19.30;65.60;;;;;;4930267;29;1844;-73
2023/04/26 10:04:41;;;;;;;;;;;19.30;65.60;;;;;;4935652;29;1486;-74
2023/04/26 10:07:07;;;;;;;;;;;19.30;65.70;;;;;;4936201;29;1962;-74
2023/04/26 10:09:32;;;;;;;;;;;19.30;65.70;;;;;;4950531;29;831;-74
2023/04/26 10:11:58;;;;;;;;;;;19.30;65.80;;;;;;4949907;29;841;-74
2023/04/26 10:14:24;;;;;;;;;;;19.20;65.70;;;;;;4933758;29;1387;-74
2023/04/26 10:16:50;;;;;;;;;;;19.30;65.80;;;;;;4949944;29;1235;-75
2023/04/26 10:19:18;;;;;;;;;;;19.20;65.80;;;;;;4949723;29;810;-74
2023/04/26 10:21:44;;;;;;;;;;;19.20;65.80;;;;;;4950038;29;939;-74
2023/04/26 10:24:09;;;;;;;;;;;19.20;65.90;;;;;;4949605;29;1686;-74
2023/04/26 10:26:48;;;;;;;;;;;19.20;65.90;;;;;;4934179;29;1891;-73
2023/04/26 10:29:13;;;;;;;;;;;19.20;66.00;;;;;;4934558;29;851;-73
2023/04/26 10:31:58;;;;;;;;;;;19.20;66.00;;;;;;4934423;29;904;-74
2023/04/26 10:34:23;;;;;;;;;;;19.20;66.00;;;;;;4934969;29;1374;-74
2023/04/26 10:37:10;;;;;;;;;;;19.20;66.10;;;;;;4934605;29;2115;-73
2023/04/26 10:39:36;;;;;;;;;;;19.20;66.10;;;;;;4932075;29;1524;-75
2023/04/26 10:42:23;;;;;;;;;;;19.20;66.10;;;;;;4934663;29;1576;-70
2023/04/26 10:44:49;;;;;;;;;;;19.10;66.10;;;;;;4949089;29;1384;-73
2023/04/26 10:47:31;;;;;;;;;;;19.10;66.10;;;;;;4934784;29;1910;-72
2023/04/26 10:50:06;;;;;;;;;;;19.10;66.20;;;;;;4935779;29;864;-72
2023/04/26 10:52:32;;;;;;;;;;;19.10;66.20;;;;;;4935264;29;849;-73
2023/04/26 10:54:58;;;;;;;;;;;19.10;66.20;;;;;;4949822;29;1249;-73
2023/04/26 10:57:42;;;;;;;;;;;19.10;66.30;;;;;;4935222;29;908;-72
2023/04/26 11:00:15;;;;;;;;;;;19.10;66.30;;;;;;4934867;29;895;-72
2023/04/26 11:02:57;;;;;;;;;;;19.10;66.30;;;;;;4935232;29;895;-72
2023/04/26 11:05:32;;;;;;;;;;;19.10;66.30;;;;;;4934327;29;1314;-75
2023/04/26 11:08:15;;;;;;;;;;;19.10;66.40;;;;;;4934153;29;1911;-74
2023/04/26 11:10:40;;;;;;;;;;;19.10;66.40;;;;;;4935560;29;864;-75
2023/04/26 11:13:06;;;;;;;;;;;19.10;66.40;;;;;;4950472;29;852;-75
2023/04/26 11:15:32;;;;;;;;;;;19.10;66.50;;;;;;4950119;28;1410;-76
2023/04/26 11:17:57;;;;;;;;;;;19.10;66.50;;;;;;4950821;29;864;-76
2023/04/26 11:20:32;;;;;;;;;;;19.00;66.40;;;;;;4950237;29;929;-75
2023/04/26 11:22:58;;;;;;;;;;;19.00;66.50;;;;;;4934379;29;806;-73
2023/04/26 11:25:24;;;;;;;;;;;19.00;66.50;;;;;;4932793;29;1395;-74
2023/04/26 11:27:50;;;;;;;;;;;19.00;66.50;;;;;;4933070;29;1899;-75
2023/04/26 11:30:17;;;;;;;;;;;19.00;66.50;;;;;;4934133;29;1430;-73
2023/04/26 11:32:44;;;;;;;;;;;19.00;66.60;;;;;;4932210;29;1341;-74
2023/04/26 11:35:10;;;;;;;;;;;19.00;66.60;;;;;;4932046;29;1466;-77
2023/04/26 11:37:35;;;;;;;;;;;19.00;66.60;;;;;;4949037;29;1512;-72
2023/04/26 11:40:01;;;;;;;;;;;19.00;66.60;;;;;;4932341;29;1353;-72
2023/04/26 11:42:26;;;;;;;;;;;19.00;66.70;;;;;;4933891;29;1361;-72
2023/04/26 11:44:52;;;;;;;;;;;19.00;66.70;;;;;;4933256;29;1316;-74
2023/04/26 11:47:17;;;;;;;;;;;18.90;66.60;;;;;;4950250;28;1977;-74
2023/04/26 11:49:43;;;;;;;;;;;18.90;66.60;;;;;;4933222;29;1413;-74
2023/04/26 11:52:08;;;;;;;;;;;18.90;66.60;;;;;;4957427;28;1278;-73
2023/04/26 11:54:34;;;;;;;;;;;18.90;66.70;;;;;;4933902;29;1402;-73
2023/04/26 11:57:00;;;;;;;;;;;18.90;66.70;;;;;;4934169;29;1333;-74
2023/04/26 11:59:26;;;;;;;;;;;18.90;66.70;;;;;;4933565;29;1414;-76
2023/04/26 12:01:52;;;;;;;;;;;18.90;66.80;;;;;;4951298;28;1143;-76
2023/04/26 12:04:17;;;;;;;;;;;18.90;66.80;;;;;;4949608;28;1360;-74
2023/04/26 12:06:43;;;;;;;;;;;18.90;66.80;;;;;;4950793;28;1906;-77
2023/04/26 12:09:10;;;;;;;;;;;18.90;66.80;;;;;;4932403;29;1421;-76
2023/04/26 12:11:35;;;;;;;;;;;18.90;66.80;;;;;;4932248;29;1592;-75
2023/04/26 12:14:01;;;;;;;;;;;18.90;66.80;;;;;;4933954;29;1327;-76
2023/04/26 12:16:26;;;;;;;;;;;18.90;66.80;;;;;;4951356;28;1390;-77
2023/04/26 12:18:52;;;;;;;;;;;18.90;66.80;;;;;;4951610;28;1491;-76
2023/04/26 12:21:18;;;;;;;;;;;18.90;66.90;;;;;;4948349;29;1750;-74
2023/04/26 12:23:46;;;;;;;;;;;18.90;66.90;;;;;;4933100;29;1323;-73
2023/04/26 12:26:12;;;;;;;;;;;18.90;66.90;;;;;;4933381;28;1378;-73
2023/04/26 12:28:37;;;;;;;;;;;18.80;66.90;;;;;;4933545;29;1970;-73
2023/04/26 12:31:03;;;;;;;;;;;18.80;66.90;;;;;;4933714;29;868;-74
2023/04/26 12:33:29;;;;;;;;;;;18.80;66.90;;;;;;4933427;29;1358;-74
2023/04/26 12:35:56;;;;;;;;;;;18.80;66.90;;;;;;4948488;29;1362;-74
2023/04/26 12:38:22;;;;;;;;;;;18.80;67.00;;;;;;4934178;29;912;-74
2023/04/26 12:40:47;;;;;;;;;;;18.80;67.00;;;;;;4935260;29;888;-74
2023/04/26 12:43:14;;;;;;;;;;;18.80;67.00;;;;;;4933354;29;1231;-74
2023/04/26 12:45:40;;;;;;;;;;;18.80;67.10;;;;;;4933124;29;1331;-74
2023/04/26 12:48:05;;;;;;;;;;;18.80;67.10;;;;;;4948289;29;1914;-70
2023/04/26 12:50:31;;;;;;;;;;;18.80;67.10;;;;;;4933459;29;952;-73
2023/04/26 12:52:56;;;;;;;;;;;18.80;67.10;;;;;;4932626;29;894;-72
2023/04/26 12:55:22;;;;;;;;;;;18.80;67.10;;;;;;4933477;29;1250;-72
2023/04/26 12:57:47;;;;;;;;;;;18.80;67.10;;;;;;4932130;29;1242;-72
2023/04/26 13:00:13;;;;;;;;;;;18.80;67.10;;;;;;4932911;29;854;-72
2023/04/26 13:02:39;;;;;;;;;;;18.80;67.10;;;;;;4932928;29;858;-72
2023/04/26 13:05:05;;;;;;;;;;;18.80;67.10;;;;;;4948055;29;1370;-73
2023/04/26 13:07:34;;;;;;;;;;;18.80;67.10;;;;;;4949165;29;1914;-75
2023/04/26 13:10:00;;;;;;;;;;;18.80;67.20;;;;;;4949995;29;895;-74
2023/04/26 13:12:26;;;;;;;;;;;18.80;67.20;;;;;;4935001;29;861;-74
2023/04/26 13:14:52;;;;;;;;;;;18.80;67.20;;;;;;4949457;29;1261;-75
2023/04/26 13:17:17;;;;;;;;;;;18.70;67.10;;;;;;4932047;29;872;-74
2023/04/26 13:19:42;;;;;;;;;;;18.70;67.10;;;;;;4933068;29;1259;-73
2023/04/26 13:22:11;;;;;;;;;;;18.70;67.20;;;;;;4934124;29;1188;-73
2023/04/26 13:24:37;;;;;;;;;;;18.70;67.20;;;;;;4950739;28;1355;-73
2023/04/26 13:27:02;;;;;;;;;;;18.70;67.20;;;;;;4932900;29;1977;-75
2023/04/26 13:29:28;;;;;;;;;;;18.70;67.20;;;;;;4931790;29;1987;-74
2023/04/26 13:31:54;;;;;;;;;;;18.70;67.20;;;;;;4946759;28;2012;-73
2023/04/26 13:34:19;;;;;;;;;;;18.70;67.20;;;;;;4931638;29;1290;-76
2023/04/26 13:36:45;;;;;;;;;;;18.70;67.20;;;;;;4925814;29;1253;-72
2023/04/26 13:39:10;;;;;;;;;;;18.70;67.20;;;;;;4936715;29;913;-74
2023/04/26 13:41:36;;;;;;;;;;;18.70;67.30;;;;;;4938214;29;837;-75
2023/04/26 13:44:01;;;;;;;;;;;18.70;67.30;;;;;;4953447;29;1261;-74
2023/04/26 13:46:27;;;;;;;;;;;18.70;67.30;;;;;;4937132;29;1899;-74
2023/04/26 13:48:52;;;;;;;;;;;18.70;67.30;;;;;;4935369;29;840;-73
2023/04/26 13:51:21;;;;;;;;;;;18.70;67.30;;;;;;4935253;29;2082;-74
2023/04/26 13:53:46;;;;;;;;;;;18.70;67.30;;;;;;4935847;29;1460;-74
2023/04/26 13:56:12;;;;;;;;;;;18.70;67.30;;;;;;4935489;29;1365;-73
2023/04/26 13:58:38;;;;;;;;;;;18.70;67.30;;;;;;4936184;29;1070;-73
2023/04/26 14:01:04;;;;;;;;;;;18.70;67.30;;;;;;4936025;29;912;-73
2023/04/26 14:03:30;;;;;;;;;;;18.70;67.30;;;;;;4935510;29;857;-74
2023/04/26 14:05:55;;;;;;;;;;;18.70;67.40;;;;;;4935621;29;1375;-74
2023/04/26 14:08:21;;;;;;;;;;;18.70;67.40;;;;;;4935588;29;1907;-73
2023/04/26 14:10:47;;;;;;;;;;;18.70;67.40;;;;;;4937741;29;845;-74
2023/04/26 14:13:13;;;;;;;;;;;18.70;67.40;;;;;;4937191;29;864;-74
2023/04/26 14:15:38;;;;;;;;;;;18.70;67.40;;;;;;4936375;29;1267;-75
2023/04/26 14:18:04;;;;;;;;;;;18.70;67.40;;;;;;4936203;29;869;-73
2023/04/26 14:20:29;;;;;;;;;;;18.70;67.40;;;;;;4936960;29;839;-76
2023/04/26 14:22:55;;;;;;;;;;;18.70;67.40;;;;;;4937094;29;845;-75
2023/04/26 14:25:21;;;;;;;;;;;18.70;67.40;;;;;;4936917;29;1218;-74
2023/04/26 14:27:47;;;;;;;;;;;18.60;67.40;;;;;;4953095;29;1887;-75
2023/04/26 14:30:13;;;;;;;;;;;18.60;67.40;;;;;;4950443;29;1348;-75